createdAt,value
2017-06-24T00:00:00.838Z,72.93
2017-06-24T00:02:34.671Z,73.66
2017-06-24T00:05:06.976Z,74.30
2017-06-24T00:07:39.219Z,74.26
2017-06-24T00:10:11.655Z,74.44
2017-06-24T00:12:44.596Z,74.50
2017-06-24T00:15:16.765Z,74.77
2017-06-24T00:17:48.934Z,74.44
2017-06-24T00:20:21.621Z,74.91
2017-06-24T00:22:53.656Z,75.07
2017-06-24T00:25:26.997Z,74.50
2017-06-24T00:27:59.834Z,74.06
2017-06-24T00:30:32.003Z,74.33
2017-06-24T00:33:04.559Z,74.55
2017-06-24T00:35:36.655Z,74.31
2017-06-24T00:38:09.032Z,74.03
2017-06-24T00:40:41.442Z,73.69
2017-06-24T00:43:13.843Z,73.55
2017-06-24T00:45:46.246Z,72.95
2017-06-24T00:48:18.891Z,73.01
2017-06-24T00:50:51.280Z,72.88
2017-06-24T00:53:23.699Z,72.81
2017-06-24T00:55:56.163Z,72.48
2017-06-24T00:58:28.563Z,72.88
2017-06-24T01:01:01.404Z,72.47
2017-06-24T01:03:33.503Z,72.61
2017-06-24T01:06:05.760Z,72.28
2017-06-24T01:08:38.132Z,72.54
2017-06-24T01:11:12.144Z,71.94
2017-06-24T01:13:44.899Z,72.03
2017-06-24T01:16:17.571Z,72.89
2017-06-24T01:18:49.772Z,71.82
2017-06-24T01:21:22.200Z,71.39
2017-06-24T01:23:54.999Z,72.27
2017-06-24T01:26:27.048Z,71.50
2017-06-24T01:28:59.768Z,70.97
2017-06-24T01:31:31.819Z,71.23
2017-06-24T01:34:04.370Z,71.06
2017-06-24T01:36:36.665Z,71.01
2017-06-24T01:39:09.287Z,70.90
2017-06-24T01:41:41.488Z,71.05
2017-06-24T01:44:14.339Z,71.07
2017-06-24T01:46:46.363Z,71.22
2017-06-24T01:49:19.591Z,70.98
2017-06-24T01:51:52.280Z,70.96
2017-06-24T01:54:24.767Z,71.02
2017-06-24T01:56:57.088Z,71.81
2017-06-24T01:59:30.451Z,71.61
2017-06-24T02:02:02.787Z,71.65
2017-06-24T02:04:35.302Z,71.76
2017-06-24T02:07:07.600Z,71.76
2017-06-24T02:09:39.923Z,71.51
2017-06-24T02:12:11.756Z,71.77
2017-06-24T02:14:44.148Z,71.59
2017-06-24T02:17:16.510Z,71.98
2017-06-24T02:19:48.816Z,72.00
2017-06-24T02:22:21.164Z,71.70
2017-06-24T02:24:53.623Z,72.49
2017-06-24T02:27:26.285Z,71.62
2017-06-24T02:30:00.482Z,71.32
2017-06-24T02:32:32.940Z,72.32
2017-06-24T02:35:05.408Z,71.14
2017-06-24T02:37:37.675Z,70.38
2017-06-24T02:40:10.303Z,71.04
2017-06-24T02:42:42.462Z,70.16
2017-06-24T02:45:14.960Z,70.29
2017-06-24T02:47:47.248Z,69.42
2017-06-24T02:50:19.716Z,69.48
2017-06-24T02:52:52.174Z,69.32
2017-06-24T02:55:24.845Z,69.53
2017-06-24T02:57:57.302Z,69.02
2017-06-24T03:00:29.564Z,69.01
2017-06-24T03:03:01.864Z,68.79
2017-06-24T03:05:33.983Z,68.68
2017-06-24T03:08:06.408Z,68.67
2017-06-24T03:10:38.919Z,68.63
2017-06-24T03:13:11.000Z,68.37
2017-06-24T03:15:43.495Z,68.03
2017-06-24T03:18:15.803Z,67.79
2017-06-24T03:20:48.284Z,67.80
2017-06-24T03:23:20.683Z,67.11
2017-06-24T03:25:53.304Z,67.08
2017-06-24T03:28:26.211Z,67.65
2017-06-24T03:30:58.768Z,67.08
2017-06-24T03:33:31.400Z,66.99
2017-06-24T03:36:03.745Z,67.35
2017-06-24T03:38:36.009Z,66.80
2017-06-24T03:41:08.572Z,67.11
2017-06-24T03:43:40.866Z,66.84
2017-06-24T03:46:13.277Z,66.69
2017-06-24T03:48:45.635Z,66.22
2017-06-24T03:51:18.001Z,66.54
2017-06-24T03:53:50.442Z,66.83
2017-06-24T03:56:23.262Z,66.55
2017-06-24T03:58:55.132Z,66.44
2017-06-24T04:01:27.525Z,66.18
2017-06-24T04:04:00.310Z,66.23
2017-06-24T04:06:32.491Z,66.43
2017-06-24T04:09:04.723Z,66.39
2017-06-24T04:11:37.172Z,66.41
2017-06-24T04:14:11.098Z,66.75
2017-06-24T04:16:43.279Z,66.44
2017-06-24T04:19:15.416Z,66.45
2017-06-24T04:21:47.679Z,66.52
2017-06-24T04:24:20.086Z,66.26
2017-06-24T04:26:52.454Z,66.46
2017-06-24T04:29:24.718Z,66.60
2017-06-24T04:31:57.076Z,66.46
2017-06-24T04:34:30.368Z,66.50
2017-06-24T04:37:03.060Z,66.62
2017-06-24T04:39:35.247Z,66.61
2017-06-24T04:42:09.246Z,67.06
2017-06-24T04:44:40.995Z,66.60
2017-06-24T04:47:13.424Z,66.73
2017-06-24T04:49:46.044Z,66.38
2017-06-24T04:52:18.227Z,65.91
2017-06-24T04:54:51.003Z,66.31
2017-06-24T04:57:26.195Z,66.68
2017-06-24T04:59:58.608Z,66.98
2017-06-24T05:02:31.287Z,66.99
2017-06-24T05:05:03.476Z,66.84
2017-06-24T05:07:36.619Z,67.05
2017-06-24T05:10:09.546Z,66.56
2017-06-24T05:12:41.643Z,66.46
2017-06-24T05:15:14.104Z,65.67
2017-06-24T05:17:46.533Z,65.82
2017-06-24T05:20:18.991Z,66.26
2017-06-24T05:22:51.446Z,66.36
2017-06-24T05:25:23.899Z,65.58
2017-06-24T05:27:57.279Z,66.63
2017-06-24T05:30:29.715Z,66.91
2017-06-24T05:33:02.580Z,66.94
2017-06-24T05:35:34.473Z,66.95
2017-06-24T05:38:06.907Z,66.62
2017-06-24T05:40:39.307Z,66.90
2017-06-24T05:43:11.708Z,65.96
2017-06-24T05:45:44.107Z,66.07
2017-06-24T05:48:17.295Z,65.85
2017-06-24T05:50:50.145Z,66.55
2017-06-24T05:53:22.180Z,66.42
2017-06-24T05:55:54.623Z,66.07
2017-06-24T05:58:26.938Z,66.86
2017-06-24T06:00:59.355Z,66.93
2017-06-24T06:03:31.701Z,66.81
2017-06-24T06:06:04.219Z,67.19
2017-06-24T06:08:36.408Z,68.13
2017-06-24T06:11:08.972Z,67.75
2017-06-24T06:13:41.484Z,67.36
2017-06-24T06:16:13.912Z,66.69
2017-06-24T06:18:46.351Z,66.72
2017-06-24T06:21:18.767Z,66.73
2017-06-24T06:23:52.299Z,66.81
2017-06-24T06:26:25.659Z,66.89
2017-06-24T06:28:58.563Z,67.29
2017-06-24T06:31:30.553Z,67.66
2017-06-24T06:34:02.856Z,67.48
2017-06-24T06:36:35.221Z,67.60
2017-06-24T06:39:08.577Z,67.92
2017-06-24T06:41:41.164Z,67.66
2017-06-24T06:44:13.639Z,67.67
2017-06-24T06:46:46.017Z,67.52
2017-06-24T06:49:18.316Z,67.61
2017-06-24T06:51:50.835Z,68.13
2017-06-24T06:54:23.275Z,67.99
2017-06-24T06:56:55.531Z,68.40
2017-06-24T06:59:27.976Z,67.68
2017-06-24T07:02:00.324Z,67.17
2017-06-24T07:04:32.899Z,67.30
2017-06-24T07:07:05.028Z,67.51
2017-06-24T07:09:37.455Z,67.64
2017-06-24T07:12:10.123Z,67.38
2017-06-24T07:14:42.232Z,67.73
2017-06-24T07:17:15.483Z,67.87
2017-06-24T07:19:48.366Z,68.44
2017-06-24T07:22:20.432Z,68.08
2017-06-24T07:24:53.115Z,68.11
2017-06-24T07:27:25.382Z,68.26
2017-06-24T07:29:57.675Z,68.98
2017-06-24T07:32:29.995Z,69.02
2017-06-24T07:35:02.467Z,68.86
2017-06-24T07:37:34.775Z,68.36
2017-06-24T07:40:07.332Z,68.60
2017-06-24T07:42:39.669Z,68.13
2017-06-24T07:45:12.063Z,68.11
2017-06-24T07:47:44.494Z,67.84
2017-06-24T07:50:16.851Z,68.43
2017-06-24T07:52:49.905Z,68.40
2017-06-24T07:55:22.748Z,67.95
2017-06-24T07:57:55.119Z,68.05
2017-06-24T08:00:28.383Z,67.34
2017-06-24T08:03:00.782Z,67.73
2017-06-24T08:05:34.079Z,68.11
2017-06-24T08:08:06.739Z,67.52
2017-06-24T08:10:38.988Z,67.66
2017-06-24T08:13:11.303Z,67.76
2017-06-24T08:15:43.675Z,68.24
2017-06-24T08:18:16.086Z,68.11
2017-06-24T08:20:48.546Z,68.52
2017-06-24T08:23:20.851Z,67.47
2017-06-24T08:25:53.255Z,67.86
2017-06-24T08:28:25.663Z,68.01
2017-06-24T08:30:58.035Z,68.04
2017-06-24T08:33:30.468Z,67.38
2017-06-24T08:36:02.878Z,67.55
2017-06-24T08:38:35.255Z,67.75
2017-06-24T08:41:07.900Z,67.47
2017-06-24T08:43:40.992Z,67.92
2017-06-24T08:46:13.297Z,67.65
2017-06-24T08:48:45.659Z,67.86
2017-06-24T08:51:18.052Z,68.03
2017-06-24T08:53:57.417Z,68.11
2017-06-24T08:56:29.983Z,68.19
2017-06-24T08:59:02.387Z,67.83
2017-06-24T09:01:34.733Z,67.58
2017-06-24T09:04:07.119Z,68.05
2017-06-24T09:06:39.555Z,67.89
2017-06-24T09:09:11.964Z,67.84
2017-06-24T09:11:45.311Z,68.20
2017-06-24T09:14:17.735Z,68.37
2017-06-24T09:16:51.000Z,68.93
2017-06-24T09:19:23.691Z,68.62
2017-06-24T09:21:56.062Z,68.76
2017-06-24T09:24:28.503Z,68.03
2017-06-24T09:27:00.976Z,68.07
2017-06-24T09:29:34.127Z,68.14
2017-06-24T09:32:06.807Z,68.26
2017-06-24T09:34:39.132Z,67.83
2017-06-24T09:37:12.470Z,67.19
2017-06-24T09:39:44.880Z,67.60
2017-06-24T09:42:17.220Z,67.40
2017-06-24T09:44:49.547Z,67.98
2017-06-24T09:47:24.939Z,68.31
2017-06-24T09:49:58.204Z,68.27
2017-06-24T09:52:31.251Z,67.91
2017-06-24T09:55:03.358Z,67.70
2017-06-24T09:57:35.748Z,67.17
2017-06-24T10:00:08.136Z,66.50
2017-06-24T10:02:40.566Z,66.63
2017-06-24T10:05:12.906Z,68.11
2017-06-24T10:07:46.129Z,68.29
2017-06-24T10:10:18.699Z,68.71
2017-06-24T10:12:51.083Z,67.73
2017-06-24T10:15:24.344Z,67.27
2017-06-24T10:17:56.804Z,67.18
2017-06-24T10:20:29.511Z,66.98
2017-06-24T10:23:01.733Z,67.35
2017-06-24T10:25:34.007Z,66.82
2017-06-24T10:28:06.759Z,66.88
2017-06-24T10:30:39.033Z,64.95
2017-06-24T10:33:11.417Z,65.59
2017-06-24T10:35:43.723Z,65.71
2017-06-24T10:38:16.096Z,64.67
2017-06-24T10:40:48.891Z,65.11
2017-06-24T10:43:20.931Z,64.55
2017-06-24T10:45:53.252Z,64.19
2017-06-24T10:48:25.665Z,65.93
2017-06-24T10:50:58.622Z,65.82
2017-06-24T10:53:30.490Z,64.44
2017-06-24T10:56:02.860Z,63.96
2017-06-24T10:58:35.307Z,63.55
2017-06-24T11:01:07.895Z,63.36
2017-06-24T11:03:40.999Z,64.76
2017-06-24T11:06:13.562Z,66.21
2017-06-24T11:08:46.071Z,66.11
2017-06-24T11:11:18.394Z,66.05
2017-06-24T11:13:50.867Z,65.21
2017-06-24T11:16:23.468Z,65.52
2017-06-24T11:18:55.575Z,65.41
2017-06-24T11:21:27.867Z,64.61
2017-06-24T11:24:00.220Z,64.81
2017-06-24T11:26:32.659Z,64.94
2017-06-24T11:29:05.047Z,64.91
2017-06-24T11:31:37.603Z,65.45
2017-06-24T11:34:11.123Z,65.25
2017-06-24T11:36:43.146Z,64.30
2017-06-24T11:39:15.569Z,63.88
2017-06-24T11:41:47.977Z,64.24
2017-06-24T11:44:20.418Z,64.02
2017-06-24T11:46:52.869Z,64.33
2017-06-24T11:49:25.652Z,65.29
2017-06-24T11:51:57.551Z,65.23
2017-06-24T11:54:29.899Z,65.24
2017-06-24T11:57:02.489Z,64.08
2017-06-24T11:59:34.843Z,63.87
2017-06-24T12:02:08.171Z,63.10
2017-06-24T12:04:41.562Z,63.65
2017-06-24T12:07:14.391Z,63.65
2017-06-24T12:09:46.615Z,63.61
2017-06-24T12:12:18.868Z,63.41
2017-06-24T12:14:51.276Z,63.35
2017-06-24T12:17:24.522Z,63.47
2017-06-24T12:19:57.111Z,64.04
2017-06-24T12:22:30.501Z,64.68
2017-06-24T12:25:02.992Z,64.81
2017-06-24T12:27:35.425Z,64.86
2017-06-24T12:30:07.698Z,64.82
2017-06-24T12:32:41.215Z,65.38
2017-06-24T12:35:13.639Z,65.87
2017-06-24T12:37:47.598Z,65.81
2017-06-24T12:40:19.406Z,64.99
2017-06-24T12:42:51.843Z,65.03
2017-06-24T12:45:24.251Z,64.37
2017-06-24T12:47:56.687Z,64.55
2017-06-24T12:50:29.260Z,64.64
2017-06-24T12:53:01.240Z,65.55
2017-06-24T12:55:33.524Z,65.86
2017-06-24T12:58:05.878Z,65.42
2017-06-24T13:00:38.562Z,65.93
2017-06-24T13:03:11.702Z,66.05
2017-06-24T13:05:44.119Z,65.99
2017-06-24T13:08:16.461Z,66.40
2017-06-24T13:10:49.380Z,66.51
2017-06-24T13:13:22.213Z,66.65
2017-06-24T13:15:54.846Z,67.04
2017-06-24T13:18:27.078Z,67.41
2017-06-24T13:20:59.443Z,67.57
2017-06-24T13:23:31.811Z,67.78
2017-06-24T13:28:43.784Z,67.58
2017-06-24T13:31:16.456Z,67.90
2017-06-24T13:33:49.312Z,67.98
2017-06-24T13:36:21.744Z,67.83
2017-06-24T13:38:54.208Z,68.58
2017-06-24T13:41:27.415Z,68.80
2017-06-24T13:43:59.994Z,68.98
2017-06-24T13:46:32.292Z,68.89
2017-06-24T13:49:05.581Z,68.45
2017-06-24T13:51:38.012Z,68.22
2017-06-24T13:54:10.584Z,67.96
2017-06-24T13:56:43.039Z,67.66
2017-06-24T13:59:15.294Z,67.71
2017-06-24T14:01:47.879Z,66.74
2017-06-24T14:04:19.964Z,67.06
2017-06-24T14:06:52.329Z,67.92
2017-06-24T14:09:25.035Z,68.15
2017-06-24T14:11:57.402Z,67.64
2017-06-24T14:14:29.780Z,67.26
2017-06-24T14:17:02.041Z,67.53
2017-06-24T14:19:34.359Z,66.96
2017-06-24T14:22:06.620Z,65.60
2017-06-24T14:24:39.084Z,66.04
2017-06-24T14:27:11.742Z,66.04
2017-06-24T14:29:43.911Z,65.88
2017-06-24T14:32:16.270Z,66.30
2017-06-24T14:34:48.784Z,66.28
2017-06-24T14:37:21.163Z,67.29
2017-06-24T14:39:53.549Z,66.96
2017-06-24T14:42:27.718Z,66.27
2017-06-24T14:45:00.953Z,66.70
2017-06-24T14:47:32.744Z,67.50
2017-06-24T14:50:05.072Z,68.00
2017-06-24T14:52:38.275Z,67.73
2017-06-24T14:55:11.273Z,68.05
2017-06-24T14:57:43.441Z,69.47
2017-06-24T15:00:16.129Z,69.42
2017-06-24T15:02:48.463Z,70.74
2017-06-24T15:05:20.603Z,71.48
2017-06-24T15:07:52.916Z,71.84
2017-06-24T15:10:25.418Z,71.29
2017-06-24T15:12:57.963Z,71.13
2017-06-24T15:15:30.088Z,71.10
2017-06-24T15:18:02.547Z,70.13
2017-06-24T15:20:34.811Z,69.77
2017-06-24T15:23:07.217Z,69.29
2017-06-24T15:25:39.650Z,69.45
2017-06-24T15:28:12.880Z,69.38
2017-06-24T15:30:45.424Z,69.51
2017-06-24T15:33:18.187Z,69.66
2017-06-24T15:35:50.203Z,69.69
2017-06-24T15:38:23.044Z,69.62
2017-06-24T15:40:55.136Z,70.18
2017-06-24T15:43:27.520Z,70.84
2017-06-24T15:46:00.815Z,71.12
2017-06-24T15:48:33.251Z,71.14
2017-06-24T15:51:05.640Z,71.89
2017-06-24T15:53:38.189Z,72.93
2017-06-24T15:56:10.556Z,73.33
2017-06-24T15:58:42.933Z,72.55
2017-06-24T16:01:15.610Z,71.90
2017-06-24T16:03:47.621Z,71.36
2017-06-24T16:06:20.142Z,71.44
2017-06-24T16:08:52.720Z,71.24
2017-06-24T16:11:24.872Z,70.74
2017-06-24T16:13:57.994Z,71.20
2017-06-24T16:16:30.677Z,71.41
2017-06-24T16:19:03.352Z,71.22
2017-06-24T16:21:35.699Z,70.28
2017-06-24T16:24:08.708Z,70.61
2017-06-24T16:26:41.271Z,70.60
2017-06-24T16:29:13.651Z,70.80
2017-06-24T16:31:46.081Z,71.46
2017-06-24T16:34:18.615Z,71.47
2017-06-24T16:36:51.690Z,71.45
2017-06-24T16:39:24.088Z,71.57
2017-06-24T16:41:57.367Z,71.40
2017-06-24T16:44:29.840Z,71.08
2017-06-24T16:47:02.272Z,70.72
2017-06-24T16:49:35.064Z,69.90
2017-06-24T16:52:07.011Z,70.51
2017-06-24T16:54:39.415Z,70.84
2017-06-24T16:57:11.899Z,71.05
2017-06-24T16:59:44.131Z,70.43
2017-06-24T17:02:16.859Z,71.17
2017-06-24T17:04:48.844Z,72.39
2017-06-24T17:07:21.279Z,73.12
2017-06-24T17:09:53.682Z,74.66
2017-06-24T17:12:27.702Z,76.89
2017-06-24T17:15:01.192Z,78.03
2017-06-24T17:17:34.644Z,78.42
2017-06-24T17:20:07.071Z,79.92
2017-06-24T17:22:39.483Z,79.85
2017-06-24T17:25:11.624Z,80.74
2017-06-24T17:27:44.027Z,80.33
2017-06-24T17:30:16.412Z,80.25
2017-06-24T17:32:48.884Z,80.03
2017-06-24T17:35:21.519Z,80.63
2017-06-24T17:37:53.557Z,80.58
2017-06-24T17:40:26.095Z,80.23
2017-06-24T17:42:58.301Z,80.34
2017-06-24T17:45:31.827Z,79.99
2017-06-24T17:48:04.077Z,79.79
2017-06-24T17:50:36.817Z,79.35
2017-06-24T17:53:08.779Z,78.77
2017-06-24T17:55:41.064Z,78.21
2017-06-24T17:58:13.891Z,77.64
2017-06-24T18:00:45.855Z,77.54
2017-06-24T18:03:18.239Z,77.43
2017-06-24T18:05:50.638Z,76.90
2017-06-24T18:08:22.967Z,76.79
2017-06-24T18:11:37.344Z,75.82
2017-06-24T18:14:09.468Z,75.45
2017-06-24T18:16:42.813Z,75.45
2017-06-24T18:19:15.144Z,75.13
2017-06-24T18:21:47.564Z,74.74
2017-06-24T18:24:20.731Z,74.95
2017-06-24T18:26:53.408Z,75.22
2017-06-24T18:29:25.763Z,76.09
2017-06-24T18:31:59.041Z,76.58
2017-06-24T18:34:31.496Z,77.24
2017-06-24T18:37:03.831Z,78.23
2017-06-24T18:39:36.148Z,78.42
2017-06-24T18:42:08.375Z,78.32
2017-06-24T18:44:40.803Z,78.29
2017-06-24T18:47:13.246Z,78.22
2017-06-24T18:49:45.556Z,77.87
2017-06-24T18:52:17.932Z,78.15
2017-06-24T18:54:51.226Z,78.26
2017-06-24T18:57:24.699Z,78.32
2017-06-24T18:59:57.227Z,78.59
2017-06-24T19:02:29.591Z,78.52
2017-06-24T19:05:02.012Z,78.43
2017-06-24T19:07:34.399Z,78.23
2017-06-24T19:10:06.689Z,78.60
2017-06-24T19:12:39.156Z,79.01
2017-06-24T19:15:11.456Z,78.86
2017-06-24T19:17:43.874Z,79.02
2017-06-24T19:20:16.388Z,79.24
2017-06-24T19:22:49.019Z,79.17
2017-06-24T19:25:21.137Z,79.24
2017-06-24T19:27:53.472Z,79.59
2017-06-24T19:30:25.815Z,80.00
2017-06-24T19:32:58.448Z,79.81
2017-06-24T19:35:31.401Z,80.05
2017-06-24T19:38:03.207Z,80.27
2017-06-24T19:40:35.587Z,79.98
2017-06-24T19:43:08.024Z,79.96
2017-06-24T19:45:40.443Z,80.18
2017-06-24T19:48:12.983Z,80.32
2017-06-24T19:50:45.173Z,80.01
2017-06-24T19:53:17.464Z,80.81
2017-06-24T19:55:49.836Z,81.15
2017-06-24T19:58:22.092Z,81.51
2017-06-24T20:00:54.547Z,81.41
2017-06-24T20:03:26.955Z,81.37
2017-06-24T20:05:59.236Z,80.92
2017-06-24T20:08:32.048Z,80.63
2017-06-24T20:11:04.203Z,80.51
2017-06-24T20:13:36.429Z,80.44
2017-06-24T20:16:08.888Z,80.47
2017-06-24T20:18:41.506Z,80.12
2017-06-24T20:21:13.827Z,79.97
2017-06-24T20:23:46.204Z,80.12
2017-06-24T20:26:18.707Z,80.28
2017-06-24T20:28:52.256Z,80.59
2017-06-24T20:31:25.231Z,80.42
2017-06-24T20:33:58.536Z,80.36
2017-06-24T20:36:31.039Z,80.36
2017-06-24T20:39:03.372Z,80.86
2017-06-24T20:41:35.725Z,81.32
2017-06-24T20:44:08.354Z,81.74
2017-06-24T20:46:40.353Z,81.98
2017-06-24T20:49:12.792Z,81.96
2017-06-24T20:51:45.289Z,82.50
2017-06-24T20:54:18.217Z,83.27
2017-06-24T20:56:51.411Z,83.39
2017-06-24T20:59:23.437Z,83.25
2017-06-24T21:01:55.811Z,83.44
2017-06-24T21:04:28.217Z,83.68
2017-06-24T21:07:00.711Z,83.71
2017-06-24T21:09:34.038Z,83.94
2017-06-24T21:12:07.175Z,84.09
2017-06-24T21:14:39.816Z,84.30
2017-06-24T21:17:12.676Z,84.57
2017-06-24T21:19:45.370Z,84.48
2017-06-24T21:22:18.135Z,84.47
2017-06-24T21:24:50.529Z,84.87
2017-06-24T21:27:22.971Z,84.97
2017-06-24T21:29:55.387Z,85.46
2017-06-24T21:32:27.735Z,85.14
2017-06-24T21:35:00.060Z,84.97
2017-06-24T21:37:32.501Z,84.67
2017-06-24T21:40:04.767Z,84.57
2017-06-24T21:42:37.088Z,84.75
2017-06-24T21:45:09.523Z,84.58
2017-06-24T21:47:42.849Z,84.51
2017-06-24T21:50:15.184Z,84.57
2017-06-24T21:52:47.537Z,85.18
2017-06-24T21:55:19.981Z,84.80
2017-06-24T21:57:52.312Z,84.58
2017-06-24T22:00:24.727Z,84.58
2017-06-24T22:02:57.055Z,84.24
2017-06-24T22:05:29.702Z,84.18
2017-06-24T22:08:01.834Z,84.25
2017-06-24T22:10:34.339Z,84.58
2017-06-24T22:13:06.615Z,84.58
2017-06-24T22:15:38.956Z,84.00
2017-06-24T22:18:11.260Z,83.97
2017-06-24T22:20:43.626Z,84.01
2017-06-24T22:23:16.000Z,83.95
2017-06-24T22:25:49.245Z,84.00
2017-06-24T22:28:21.764Z,83.78
2017-06-24T22:30:54.037Z,84.11
2017-06-24T22:33:26.432Z,83.71
2017-06-24T22:35:58.797Z,83.77
2017-06-24T22:38:31.281Z,83.56
2017-06-24T22:41:03.676Z,83.46
2017-06-24T22:43:36.114Z,83.41
2017-06-24T22:46:08.685Z,83.44
2017-06-24T22:48:41.680Z,83.59
2017-06-24T22:51:14.183Z,83.63
2017-06-24T22:53:46.814Z,83.52
2017-06-24T22:56:19.759Z,83.42
2017-06-24T22:58:54.339Z,83.31
2017-06-24T23:01:26.656Z,83.66
2017-06-24T23:03:59.124Z,83.54
2017-06-24T23:06:32.152Z,83.45
2017-06-24T23:09:04.963Z,84.37
2017-06-24T23:11:38.180Z,84.65
2017-06-24T23:14:11.458Z,84.24
2017-06-24T23:16:44.090Z,84.90
2017-06-24T23:19:16.479Z,85.37
2017-06-24T23:21:48.828Z,85.73
2017-06-24T23:24:21.355Z,85.67
2017-06-24T23:26:53.587Z,85.45
2017-06-24T23:29:26.054Z,85.79
2017-06-24T23:31:58.443Z,85.52
2017-06-24T23:34:30.743Z,85.25
2017-06-24T23:37:03.355Z,85.32
2017-06-24T23:39:37.088Z,85.07
2017-06-24T23:42:10.501Z,85.30
2017-06-24T23:44:43.220Z,85.19
2017-06-24T23:47:15.443Z,85.28
2017-06-24T23:49:48.288Z,85.19
2017-06-24T23:52:21.102Z,85.32
2017-06-24T23:54:53.599Z,85.41
2017-06-24T23:57:25.855Z,85.85
2017-06-24T23:59:58.172Z,85.90
